Horsham, Australia
Current Conditions -  °F | °C
As of 4:00 PM on Saturday 29 Nov 2014 (Local Time) from YMTG Reporting Station
Clear Clear  
Wind Chill: 86°   Ceiling: Unl
Heat Index: 86°   Visibility: 6mi
Dew Point: 46°   Wind: 16mph
Humidity: 25%   Direction: 200°SSW
Pressure: 29.8"   Gusts: NA
Location:  36.71°S, 142.2°E
Report Text: YMTG 290500Z AUTO 20014KT 9999 // NCD 30/08 Q1009
Loading
Personal Weather Stations






























Interactive Weather Map New forecast layout! Learn more

10-Day Weather Forecast

Advertisements
Track Severe Weather on mobile